Latest Coastal Weather Observations for Spring Bay

IDT60701

Issued at 5:15 am EST Wednesday 3 September 2014 (issued every 10 minutes, with the page automatically refreshed every 10 minutes)

About coastal observations | Map of coastal stations | Coastal observations for TAS | Marine services | Other Formats
Station Details ID: 092133 Name: SPRING BAY NTC AWS Lat: -42.55 Lon: 147.93 Height: 0.0 m
Data from the previous 72 hours. | See also: Recent months for locations in Tasmania
Date/Time
EST
Temp

°C
Wind Pressure Rain
since 9am
mm
Weather Cloud Vis
km
Sea
Height
m
Swell
Dir
 
Speed
knots
Gust
knots
hPa Trend Height
m
Period
s
Dir
03/05:00am 7.4 SW 6 8 1019.7 - - - - - - - - -
03/04:30am 7.0 WSW 5 7 1019.7 - - - - - - - - -
03/04:00am 7.0 WSW 8 12 1019.7 - - - - - - - - -
03/03:30am 7.3 SW 11 14 1019.6 - - - - - - - - -
03/03:00am 7.4 WSW 10 14 1019.7 - - - - - - - - -
03/02:30am 7.3 SW 9 12 1019.9 - - - - - - - - -
03/02:00am 7.4 SW 11 13 1020.2 - - - - - - - - -
03/01:30am 7.4 SW 12 15 1020.4 - - - - - - - - -
03/01:00am 7.4 SW 10 13 1020.4 - - - - - - - - -
03/12:30am 7.4 SW 12 14 1020.6 - - - - - - - - -
03/12:00am 7.5 SW 12 15 1020.6 - - - - - - - - -
 
Date/Time
EST
Temp

°C
Wind Pressure Rain
since 9am
mm
Weather Cloud Vis
km
Sea
Height
m
Swell
Dir
 
Speed
knots
Gust
knots
hPa Trend Height
m
Period
s
Dir
02/11:30pm 7.5 WSW 10 12 1020.6 - - - - - - - - -
02/11:00pm 7.9 SW 13 15 1020.6 - - - - - - - - -
02/10:30pm 7.9 SSW 11 14 1020.6 - - - - - - - - -
02/10:00pm 8.1 SW 10 13 1020.6 - - - - - - - - -
02/09:30pm 8.3 SW 8 11 1020.8 - - - - - - - - -
02/09:00pm 8.8 SW 9 12 1020.6 - - - - - - - - -
02/08:30pm 9.0 SW 8 12 1020.5 - - - - - - - - -
02/08:00pm 9.0 SW 6 9 1020.4 - - - - - - - - -
02/07:30pm 9.8 S 9 12 1020.0 - - - - - - - - -
02/07:00pm 9.6 S 7 11 1019.9 - - - - - - - - -
02/06:30pm 9.4 SSE 11 12 1019.7 - - - - - - - - -
02/06:00pm 10.0 S 9 13 1019.3 - - - - - - - - -
02/05:30pm 9.8 S 14 17 1019.0 - - - - - - - - -
02/05:00pm 9.9 S 12 17 1018.6 - - - - - - - - -
02/04:30pm 10.4 S 16 22 1018.1 - - - - - - - - -
02/04:00pm 11.2 SSE 19 22 1017.5 - - - - - - - - -
02/03:30pm 11.5 SSE 17 21 1017.2 - - - - - - - - -
02/03:00pm 11.5 SSE 18 23 1017.0 - - - - - - - - -
02/02:30pm 12.0 S 15 21 1016.8 - - - - - - - - -
02/02:00pm 11.9 SSW 14 19 1016.6 - - - - - - - - -
02/01:30pm 11.7 S 17 21 1016.7 - - - - - - - - -
02/01:00pm 11.7 S 12 20 1016.9 - - - - - - - - -
02/12:30pm 11.6 S 12 18 1017.0 - - - - - - - - -
02/12:00pm 11.5 S 13 19 1017.1 - - - - - - - - -
02/11:30am 11.4 SSW 15 20 1017.3 - - - - - - - - -
02/11:00am 11.4 S 12 17 1017.2 - - - - - - - - -
02/10:30am 10.7 S 13 18 1017.2 - - - - - - - - -
02/10:00am 10.6 SSW 13 17 1017.1 - - - - - - - - -
02/09:30am 10.3 SW 11 14 1016.8 - - - - - - - - -
02/09:00am 9.4 SW 11 17 1016.7 - - - - - - - - -
02/08:30am 9.1 WSW 11 14 1016.5 - - - - - - - - -
02/08:00am 8.6 SW 11 15 1016.3 - - - - - - - - -
02/07:30am 8.2 SW 11 15 1016.0 - - - - - - - - -
02/07:00am 7.9 SW 15 17 1015.6 - - - - - - - - -
02/06:30am 8.1 SW 16 19 1015.1 - - - - - - - - -
02/06:00am 8.3 SW 16 19 1014.7 - - - - - - - - -
02/05:30am 8.5 SW 15 18 1014.2 - - - - - - - - -
02/05:00am 8.3 SW 14 17 1013.7 - - - - - - - - -
02/04:30am 8.2 SW 13 17 1013.3 - - - - - - - - -
02/04:00am 8.3 SW 13 17 1012.8 - - - - - - - - -
02/03:30am 8.5 SW 12 15 1012.4 - - - - - - - - -
02/03:00am 8.5 WSW 9 14 1012.2 - - - - - - - - -
02/02:30am 8.4 WSW 8 11 1012.2 - - - - - - - - -
02/02:00am 8.8 SW 9 12 1012.1 - - - - - - - - -
02/01:30am 8.8 SW 9 14 1011.9 - - - - - - - - -
02/01:00am 10.2 S 12 14 1011.7 - - - - - - - - -
02/12:30am 9.9 SSW 11 13 1011.6 - - - - - - - - -
02/12:00am 10.2 SSW 10 12 1011.2 - - - - - - - - -
 
Date/Time
EST
Temp

°C
Wind Pressure Rain
since 9am
mm
Weather Cloud Vis
km
Sea
Height
m
Swell
Dir
 
Speed
knots
Gust
knots
hPa Trend Height
m
Period
s
Dir
01/11:30pm 10.5 S 14 19 1010.8 - - - - - - - - -
01/11:00pm 10.2 SSW 9 11 1010.4 - - - - - - - - -
01/10:30pm 10.6 S 8 10 1010.5 - - - - - - - - -
01/10:00pm 10.5 S 10 14 1009.9 - - - - - - - - -
01/09:30pm 10.7 S 11 18 1009.5 - - - - - - - - -
01/09:00pm 10.3 SW 11 17 1009.3 - - - - - - - - -
01/08:30pm 10.1 SW 10 15 1008.9 - - - - - - - - -
01/08:00pm 10.6 S 10 15 1008.2 - - - - - - - - -
01/07:30pm 10.4 S 14 21 1007.5 - - - - - - - - -
01/07:00pm 10.5 S 12 19 1007.0 - - - - - - - - -
01/06:30pm 10.9 S 12 17 1006.3 - - - - - - - - -
01/06:00pm 10.9 SSW 14 20 1005.6 - - - - - - - - -
01/05:30pm 10.7 SSW 8 13 1005.0 - - - - - - - - -
01/05:00pm 10.8 SSW 12 18 1004.4 - - - - - - - - -
01/04:30pm 11.2 SW 13 17 1003.8 - - - - - - - - -
01/04:00pm 11.5 SSW 8 12 1002.9 - - - - - - - - -
01/03:30pm 11.5 S 5 11 1002.6 - - - - - - - - -
01/03:00pm 11.7 S 15 20 1002.0 - - - - - - - - -
01/02:42pm 13.9 W 18 24 1001.7 - - - - - - - - -
01/02:30pm 15.0 WNW 24 32 1001.5 - - - - - - - - -
01/02:05pm 15.2 WNW 22 33 1001.5 - - - - - - - - -
01/02:00pm 14.9 NW 23 32 1001.5 - - - - - - - - -
01/01:48pm 15.1 NW 23 35 1001.6 - - - - - - - - -
01/01:30pm 15.2 NW 24 32 1001.5 - - - - - - - - -
01/01:00pm 15.4 NW 24 41 1001.6 - - - - - - - - -
01/12:37pm 15.3 NW 20 35 1001.7 - - - - - - - - -
01/12:30pm 15.2 NW 20 30 1001.7 - - - - - - - - -
01/12:00pm 15.4 NW 23 33 1002.0 - - - - - - - - -
01/11:30am 15.7 NW 23 33 1002.4 - - - - - - - - -
01/11:04am 16.0 NW 20 32 1002.6 - - - - - - - - -
01/11:00am 15.8 NW 21 27 1002.6 - - - - - - - - -
01/10:55am 16.3 NW 21 25 1002.6 - - - - - - - - -
01/10:30am 15.8 N 3 14 1002.7 - - - - - - - - -
01/10:00am 14.7 E 3 5 1003.2 - - - - - - - - -
01/09:30am 14.4 NE 3 5 1003.9 - - - - - - - - -
01/09:00am 13.3 WSW 2 3 1004.4 - - - - - - - - -
01/08:30am 13.1 NW 2 4 1004.5 - - - - - - - - -
01/08:00am 12.9 WNW 3 4 1004.5 - - - - - - - - -
01/07:30am 13.3 WSW 6 7 1004.8 - - - - - - - - -
01/07:00am 13.1 WNW 4 6 1004.8 - - - - - - - - -
01/06:30am 13.3 NW 7 9 1005.4 - - - - - - - - -
01/06:00am 13.7 NNW 9 12 1005.6 - - - - - - - - -
01/05:30am 13.7 NW 10 11 1005.5 - - - - - - - - -
01/05:00am 13.8 NW 7 9 1005.7 - - - - - - - - -
01/04:30am 12.9 WNW 8 10 1006.0 - - - - - - - - -
01/04:00am 12.8 WNW 6 8 1006.0 - - - - - - - - -
01/03:30am 13.0 NW 8 10 1006.3 - - - - - - - - -
01/03:00am 13.1 NNW 11 13 1006.5 - - - - - - - - -
01/02:30am 13.3 NW 15 18 1007.0 - - - - - - - - -
01/02:00am 13.6 WNW 12 16 1007.8 - - - - - - - - -
01/01:30am 14.0 NW 17 20 1008.3 - - - - - - - - -
01/01:00am 14.4 NNW 15 18 1008.4 - - - - - - - - -
01/12:30am 14.6 NNW 15 20 1008.3 - - - - - - - - -
01/12:00am 14.2 N 10 14 1008.9 - - - - - - - - -
 
Date/Time
EST
Temp

°C
Wind Pressure Rain
since 9am
mm
Weather Cloud Vis
km
Sea
Height
m
Swell
Dir
 
Speed
knots
Gust
knots
hPa Trend Height
m
Period
s
Dir
31/11:30pm 14.3 N 11 18 1008.8 - - - - - - - - -
31/11:00pm 14.2 N 10 15 1009.4 - - - - - - - - -
31/10:30pm 14.5 N 11 18 1009.8 - - - - - - - - -
31/10:00pm 14.5 N 12 18 1010.3 - - - - - - - - -
31/09:30pm 15.0 NNW 16 19 1010.5 - - - - - - - - -
31/09:00pm 15.4 NNW 14 19 1010.6 - - - - - - - - -
31/08:30pm 15.6 NNW 11 16 1010.8 - - - - - - - - -
31/08:00pm 15.8 NNW 10 17 1011.0 - - - - - - - - -
31/07:30pm 15.2 NNW 8 15 1011.2 - - - - - - - - -
31/07:00pm 15.3 NW 10 13 1011.2 - - - - - - - - -
31/06:30pm 15.6 NNW 9 14 1011.1 - - - - - - - - -
31/06:00pm 15.6 NW 6 10 1011.4 - - - - - - - - -
31/05:30pm 15.9 NW 13 18 1011.3 - - - - - - - - -
31/05:00pm 16.3 NW 12 17 1011.1 - - - - - - - - -
31/04:30pm 16.1 NW 9 12 1011.3 - - - - - - - - -
31/04:00pm 16.7 NW 13 18 1011.4 - - - - - - - - -
31/03:30pm 16.2 NW 10 14 1011.7 - - - - - - - - -

Other Formats:

Comma delimited format used in spreadsheet applications
http://www.bom.gov.au/fwo/IDT60701/IDT60701.95987.axf

JavaScript Object Notation format (JSON) in row-major order
http://www.bom.gov.au/fwo/IDT60701/IDT60701.95987.json